Other Surface Observations
Issued by NWS Missoula, MT

Home | Current Version | Previous Version | Text Only | Print | Product List | Glossary On
Versions: 1 2 3 4 5 6 7 8 9 10 11 12 13 14 15 16 17 18 19 20 21 22 23 24 25 26 27 28 29 30 31 32 33 34 35 36 37 38 39 40 41 42 43 44 45 46 47 48 49 50
000
SXUS55 KMSO 290103
OSOMSO
MONTANA AWOS SUMMARY
NATIONAL WEATHER SERVICE MISSOULA MT
603 PM MST THU APR 28 2016

Montana AWOS Reports

TWIN BRIDGES|K7S1 290055Z AUTO 34016G21KT 40SM 05/M03 A2995 RMK AO1 T00501032
ROUNDUP     |KRPX 290055Z AUTO 00000KT 40SM 03/01 A3000 RMK AO1 T00330006
SCOBEY      |K9S2 290055Z AUTO 08011G15KT 40SM 13/M08 A3011 RMK AO1 T01281077
EKALAKA     |K97M 290055Z AUTO 09006KT 40SM 02/M01 A3008 RMK AO1 T00221005
PLAINS      |KS34 290055Z AUTO 00000KT 40SM 11/01 A3002 RMK AO1 T01110011
LAUREL      |K6S8 290055Z AUTO 00000KT 40SM 04/M04 A3006 RMK AO1 T00441038




USA.gov is the U.S. government's official web portal to all federal, state and local government web resources and services.